AirNav   ATP
 
 608 users online  

8G8 Koons Airport
Salem, Ohio, USA

GOING TO SALEM?


FAA INFORMATION EFFECTIVE 04 JANUARY 2018

Location

FAA Identifier: 8G8
Lat/Long: 40-53-00.2120N / 080-52-59.3050W
40-53.003533N / 080-52.988417W
40.8833922 / -80.8831403
(estimated)
Elevation: 1327 ft. / 404 m (estimated)
Variation: 07W (1985)
From city: 2 miles SW of SALEM, OH
Time zone: UTC -5 (UTC -4 during Daylight Saving Time)
Zip code: 44460

Airport Operations

Airport use: Open to the public
Control tower: no
ARTCC: CLEVELAND CENTER
FSS: CLEVELAND FLIGHT SERVICE STATION
NOTAMs facility: CLE (NOTAM-D service available)
Attendance: DAYLIGHT HOURS
Wind indicator: yes
Segmented circle: no

Airport Communications

CTAF: 122.9

Nearby radio navigation aids

VOR radial/distance  VOR name  Freq  Var
ACOr137/19.7AKRON VOR/DME114.4004W
BSVr075/26.4BRIGGS VOR/DME112.4004W
YNGr204/28.5YOUNGSTOWN VORTAC109.0005W
EWCr285/30.7ELLWOOD CITY VOR/DME115.8008W
MMJr315/39.3MONTOUR VORTAC112.0008W

 
NDB name  Hdg/Dist  Freq  Var  ID
CASTLE257/22.827209WUCP ..- -.-. .--.
CADIZ016/39.223907WCFX -.-. ..-. -..-

Airport Services

Parking: tiedowns
Airframe service: NONE
Powerplant service: NONE

Runway Information

Runway 9/27

Dimensions: 1850 x 100 ft. / 564 x 30 m
Surface: turf, in good condition
RUNWAY 9  RUNWAY 27
Latitude: 40-53.008667N40-52.998167N
Longitude: 080-53.188833W080-52.787667W
Elevation: 1327.0 ft.1327.0 ft.
Gradient: 1.4%1.4%
Traffic pattern: leftright
Runway end identifier lights: nono
Obstructions: 8 ft. crops, 125 ft. both sides of centerline
RWY 09: OBST CLNS SLOPE 7:1, DUE TO 55-FT TREE, 385-FT FM RWY 09, 55-FT L
70 ft. trees, 50 ft. from runway, 75 ft. left of centerline
RWY 27: OBST CLNS SLOPE 1:1, DUE TO 75-FT TREES 135-FT FM, RWY 27, 60-FT L

Airport Ownership and Management from official FAA records

Ownership: Privately-owned
Owner: DAVID & HARRY KOONS
1760 ST RTE 9
SALEM, OH 44460
Phone 330-337-7303
Manager: DAVID & HARRY KOONS
1760 ST RTE 9
SALEM, OH 44460
Phone 330-337-7303
ADNL CTC: 330-337-1780

Airport Operational Statistics

Aircraft based on the field: 9
Single engine airplanes: 7
Ultralights: 2
    
Aircraft operations: avg 49/week *
98% local general aviation
2% transient general aviation
<1% military
* for 12-month period ending 26 August 2017

Additional Remarks

FOR IFR CLEARANCE CTC CLEVELAND ARTCC (ZOB) 120.775/298.95 OR CALL ZOB 440-774-0489.
DEER, BIRDS & OTHER WILDLIFE ON & INVOF AIRPORT

Instrument Procedures

There are no published instrument procedures at 8G8.

Some nearby airports with instrument procedures:

38D - Salem Airpark Inc (4 nm N)
3G6 - Tri-City Airport (5 nm W)
4G4 - Youngstown Elser Metro Airport (10 nm NE)
02G - Columbiana County Airport (17 nm SE)
KTSO - Carroll County-Tolson Airport (21 nm SW)
 
Loc | Ops | Rwys | IFR | FBO | Links
Com | Nav | Svcs | Stats | Notes


 
Area around 8G8 (Koons Airport)
 
Road maps at: MapQuest Bing Google
 
Aerial photo
WARNING: Photo may not be current or correct
Aerial photo of 8G8 (Koons Airport)
Photo by Rick Hunt
Photo taken 22-Mar-2015
looking south.

Do you have a better or more recent aerial photo of Koons Airport that you would like to share? If so, please send us your photo.

 
Sectional chart

 
Airport distance calculator
Flying to Koons Airport? Find the distance to fly.

From to 8G8

Sunrise and sunset
Times for 23-Jan-2018
 Local
(UTC-5)
 Zulu
(UTC)
Morning civil twilight07:1312:13
Sunrise07:4312:43
Sunset17:2822:28
Evening civil twilight17:5822:58

Current date and time
Zulu (UTC)  23-Jan-2018 12:18:57
Local (UTC-5)  23-Jan-2018 07:18:57
 
METAR
KUCP 
23nm E 
231056Z AUTO VRB04KT 10SM OVC065 08/08 A2960 RMK AO2 SLP039 T00780078
KBVI 
23nm E 
230047Z 19005KT 10SM -RA SCT060 OVC075 14/06 A2978 RMK LTG DSNT W
KYNG 
24nm NE 
231051Z 19006KT 10SM FEW009 OVC065 08/07 A2957 RMK AO2 SLP014 T00780067
KPOV 
26nm NW 
231055Z AUTO 24005KT 10SM SCT012 BKN017 OVC031 07/06 A2958 RMK AO2 P0003 T00680060
KCAK 
26nm W 
231051Z 22008KT 10SM SCT023 BKN047 OVC080 08/05 A2959 RMK AO2 SLP021 T00780050
KAKR 
28nm W 
231054Z AUTO 22005KT 10SM FEW017 SCT065 OVC100 08/06 A2958 RMK AO2 SLP015 T00830061 $
KPHD 
35nm SW 
231053Z AUTO VRB06KT 10SM BKN080 BKN110 09/04 A2962 RMK AO2 SLP029 T00890039
KPIT 
36nm SE 
231051Z 19005KT 10SM -DZ FEW045 OVC060 09/08 A2962 RMK AO2 RAE32DZB51 SLP038 P0000 T00890078
KBTP 
43nm E 
231056Z AUTO 19005KT 10SM SCT017 BKN060 OVC075 08/07 A2963 RMK AO2 RAE35 SLP039 P0000 T00780072
KHLG 
44nm S 
231053Z AUTO 25013G28KT 10SM SCT050 OVC060 08/03 A2963 RMK AO2 PK WND 27028/1045 SLP036 T00830028 $
TAF
KBVI 
23nm E 
230534Z 2306/2406 16010KT P6SM -SHRA OVC050 WS020/20040KT TEMPO 2306/2308 3SM SHRA FM230800 21010KT P6SM VCSH BKN050 FM231400 23018G28KT P6SM VCSH BKN035 FM232100 24015G25KT P6SM VCSH OVC025 AMD NOT SKED
KYNG 
24nm NE 
230914Z 2309/2406 20007KT P6SM VCSH SCT020 OVC060 FM231500 24014G22KT 5SM -SHRA OVC025 FM232200 24018G26KT 3SM -SHRASN OVC012
KCAK 
26nm W 
230539Z 2306/2406 18014KT P6SM SCT040 BKN060 TEMPO 2306/2308 3SM -TSRA BKN020CB FM230800 21011KT P6SM SCT025 BKN040 FM231400 23014G22KT 5SM -SHRA OVC025 FM232100 24018G28KT 5SM -SHRASN OVC018
NOTAMs
Click for the latest NOTAMs
NOTAMs are issued by the DoD/FAA and will open in a separate window not controlled by AirNav.

 

 
 

Would you like to see your business listed on this page?

 If your business provides an interesting product or service to pilots, flight crews, aircraft, or users of the Koons Airport, you should consider listing it here.  To start the listing process, click on the button below
 
Add a business
 

Other Pages about Koons Airport

Update a link
 
Copyright © AirNav, LLC. All rights reserved. Privacy Policy  Contact